Time;durP1;ratioP1;P1;durP2;ratioP2;P2;SDS_P1;SDS_P2;PMS_P1;PMS_P2;Temp;Humidity;BMP_temperature;BMP_pressure;BME280_temperature;BME280_humidity;BME280_pressure;Samples;Min_cycle;Max_cycle;Signal;HPM_P1;HPM_P2
2022/03/09 00:01:52;;;;;;;6.97;5.70;;;7.10;49.70;;;;;;6008537;23;20404;-87
2022/03/09 00:04:36;;;;;;;10.40;6.47;;;6.90;49.80;;;;;;6006705;23;20443;-86
2022/03/09 00:07:06;;;;;;;9.33;6.20;;;6.90;50.10;;;;;;6012257;23;20418;-87
2022/03/09 00:10:07;;;;;;;9.70;6.50;;;6.80;49.90;;;;;;6009152;23;20431;-86
2022/03/09 00:12:39;;;;;;;9.43;6.40;;;6.70;49.90;;;;;;6002488;23;20412;-86
2022/03/09 00:15:32;;;;;;;6.90;6.20;;;7.00;49.60;;;;;;6019600;23;20431;-84
2022/03/09 00:18:11;;;;;;;8.40;6.23;;;7.10;49.10;;;;;;6012025;23;20419;-84
2022/03/09 00:20:50;;;;;;;8.10;6.63;;;6.90;49.00;;;;;;6013716;23;20442;-85
2022/03/09 00:23:33;;;;;;;7.53;6.60;;;6.70;49.40;;;;;;5989876;23;20526;-84
2022/03/09 00:29:54;;;;;;;9.30;6.40;;;6.80;49.80;;;;;;6011302;23;20463;-86
2022/03/09 00:32:42;;;;;;;6.80;6.10;;;6.90;49.70;;;;;;5981058;23;20467;-84
2022/03/09 00:35:21;;;;;;;9.30;5.80;;;7.20;48.90;;;;;;6004712;23;20411;-85
2022/03/09 00:38:03;;;;;;;8.13;6.00;;;7.00;48.60;;;;;;5980972;23;20431;-86
2022/03/09 00:40:38;;;;;;;6.17;5.67;;;6.80;49.00;;;;;;5983652;23;20455;-87
2022/03/09 00:43:28;;;;;;;8.13;5.57;;;6.70;49.40;;;;;;5991660;23;20454;-86
2022/03/09 00:46:19;;;;;;;6.43;5.73;;;6.50;50.00;;;;;;5993284;23;20499;-87
2022/03/09 00:48:59;;;;;;;9.00;5.67;;;6.50;50.90;;;;;;5992954;23;20495;-87
2022/03/09 00:51:58;;;;;;;8.93;5.93;;;6.70;50.90;;;;;;5998751;23;20715;-86
2022/03/09 00:54:44;;;;;;;6.47;5.40;;;6.80;50.40;;;;;;6023831;23;20422;-86
2022/03/09 00:57:19;;;;;;;7.57;5.97;;;6.80;50.40;;;;;;5993468;23;20437;-86
2022/03/09 01:00:00;;;;;;;8.03;6.00;;;6.70;50.40;;;;;;5990608;23;20755;-87
2022/03/09 01:03:04;;;;;;;6.87;6.17;;;6.50;50.70;;;;;;5995077;23;20476;-86
2022/03/09 01:05:49;;;;;;;7.53;5.90;;;6.70;51.70;;;;;;6006796;23;20419;-86
2022/03/09 01:08:18;;;;;;;8.80;6.10;;;6.60;51.90;;;;;;6014449;23;20471;-86
2022/03/09 01:11:00;;;;;;;7.17;5.50;;;6.70;52.30;;;;;;5992583;23;20438;-85
2022/03/09 01:13:44;;;;;;;10.23;5.70;;;6.60;52.50;;;;;;5994035;23;20507;-85
2022/03/09 01:16:30;;;;;;;6.63;6.00;;;6.50;52.40;;;;;;5994259;23;20411;-86
2022/03/09 01:19:05;;;;;;;5.33;4.77;;;6.70;52.50;;;;;;5999776;23;20479;-85
2022/03/09 01:21:44;;;;;;;11.53;6.17;;;6.70;52.40;;;;;;6013038;23;20427;-86
2022/03/09 01:24:22;;;;;;;7.07;6.37;;;6.60;51.80;;;;;;6000096;23;20439;-86
2022/03/09 01:32:47;;;;;;;11.27;6.57;;;6.70;53.40;;;;;;6071919;23;20492;-85
2022/03/09 01:35:24;;;;;;;5.60;4.77;;;6.60;52.70;;;;;;6046904;23;20432;-86
2022/03/09 01:37:53;;;;;;;8.00;5.67;;;6.40;52.80;;;;;;6074267;23;20452;-83
2022/03/09 01:40:44;;;;;;;7.50;5.40;;;6.40;53.20;;;;;;6010103;23;20456;-85
2022/03/09 01:43:20;;;;;;;6.70;5.90;;;6.50;52.60;;;;;;5985674;24;20412;-85
2022/03/09 01:46:01;;;;;;;6.50;5.50;;;6.60;52.20;;;;;;5983467;24;20420;-85
2022/03/09 01:48:39;;;;;;;7.57;5.80;;;6.50;51.80;;;;;;5984279;24;20416;-86
2022/03/09 01:51:23;;;;;;;8.10;6.10;;;6.40;52.50;;;;;;5959270;24;20542;-86
2022/03/09 01:53:57;;;;;;;7.60;6.90;;;6.40;52.80;;;;;;5955633;24;20456;-86
2022/03/09 01:56:47;;;;;;;;;;;;;;;;;;;;;
2022/03/09 02:02:20;;;;;;;7.80;5.60;;;6.20;53.30;;;;;;5959596;24;20425;-85
2022/03/09 02:05:00;;;;;;;6.30;5.50;;;6.10;53.40;;;;;;5956546;24;20574;-84
2022/03/09 02:10:57;;;;;;;6.60;5.20;;;6.10;53.70;;;;;;5958136;24;20464;-85
2022/03/09 02:20:55;;;;;;;7.60;5.83;;;6.10;53.10;;;;;;5972207;23;20458;-85
2022/03/09 02:24:18;;;;;;;5.60;4.50;;;6.00;53.00;;;;;;5984575;24;20752;-85
2022/03/09 02:27:07;;;;;;;7.43;5.90;;;6.00;52.70;;;;;;5986973;24;20414;-84
2022/03/09 02:32:52;;;;;;;10.13;5.80;;;6.00;52.90;;;;;;6045807;23;20430;-85
2022/03/09 02:35:42;;;;;;;6.77;5.27;;;6.00;53.00;;;;;;5939165;24;20493;-85
2022/03/09 02:38:34;;;;;;;7.43;5.33;;;5.90;52.70;;;;;;5955173;24;20421;-85
2022/03/09 02:49:06;;;;;;;8.30;5.57;;;5.70;53.10;;;;;;5919739;24;20470;-85
2022/03/09 02:55:57;;;;;;;6.97;5.63;;;5.80;52.90;;;;;;5956493;24;20565;-85
2022/03/09 02:59:41;;;;;;;;;;;;;;;;;;;;;
2022/03/09 03:02:53;;;;;;;6.90;4.80;;;5.60;52.60;;;;;;6015742;23;20423;-83
2022/03/09 03:05:48;;;;;;;8.50;5.70;;;5.40;52.50;;;;;;5997918;23;20537;-85
2022/03/09 03:08:59;;;;;;;7.73;5.80;;;5.40;52.60;;;;;;5997792;23;20412;-85
2022/03/09 03:12:28;;;;;;;7.77;5.87;;;5.70;52.10;;;;;;5928720;23;20435;-85
2022/03/09 03:15:37;;;;;;;6.57;5.10;;;5.70;52.10;;;;;;6004407;23;20419;-85
2022/03/09 03:18:40;;;;;;;7.00;4.97;;;5.60;52.50;;;;;;5992608;23;20527;-85
2022/03/09 03:25:32;;;;;;;7.20;4.77;;;5.40;52.10;;;;;;5931849;24;20453;-85
2022/03/09 03:31:55;;;;;;;6.40;5.10;;;5.30;53.00;;;;;;5992240;24;20731;-86
2022/03/09 03:34:55;;;;;;;8.10;5.53;;;5.30;53.50;;;;;;5987903;24;20412;-85
2022/03/09 03:48:35;;;;;;;5.57;4.97;;;5.50;54.30;;;;;;5990898;24;20423;-86
2022/03/09 03:51:51;;;;;;;6.00;5.40;;;5.60;55.40;;;;;;5991021;24;20499;-84
2022/03/09 03:54:55;;;;;;;6.43;5.30;;;5.50;55.70;;;;;;5991043;23;20400;-85
2022/03/09 03:57:56;;;;;;;6.00;5.37;;;5.60;56.00;;;;;;6009919;23;20476;-86
2022/03/09 04:01:20;;;;;;;8.33;4.73;;;5.50;56.20;;;;;;5993122;24;20483;-82
2022/03/09 04:04:25;;;;;;;5.63;5.13;;;5.50;54.80;;;;;;5990397;24;20448;-83
2022/03/09 04:10:56;;;;;;;7.00;5.27;;;5.40;54.60;;;;;;5982437;24;20424;-83
2022/03/09 04:17:50;;;;;;;6.40;4.50;;;5.20;54.60;;;;;;5956594;24;20422;-85
2022/03/09 04:20:52;;;;;;;6.10;4.30;;;5.10;55.00;;;;;;5985072;23;20419;-84
2022/03/09 04:24:28;;;;;;;5.90;4.80;;;5.20;54.30;;;;;;5995370;23;20410;-83
2022/03/09 04:27:34;;;;;;;5.97;5.37;;;5.30;54.20;;;;;;5997105;23;20391;-85
2022/03/09 04:30:30;;;;;;;8.03;5.20;;;5.10;54.50;;;;;;5995524;23;20603;-83
2022/03/09 04:33:46;;;;;;;5.50;5.00;;;5.10;55.00;;;;;;5997393;23;20371;-84
2022/03/09 04:36:44;;;;;;;5.20;4.70;;;5.10;55.80;;;;;;6017218;23;20430;-84
2022/03/09 04:39:33;;;;;;;6.03;5.27;;;5.20;55.90;;;;;;6010895;23;20418;-85
2022/03/09 04:42:37;;;;;;;10.10;5.50;;;5.30;55.80;;;;;;5978792;23;20415;-85
2022/03/09 04:45:38;;;;;;;8.30;5.10;;;5.20;55.80;;;;;;5987071;23;20447;-85
2022/03/09 04:48:59;;;;;;;7.53;4.73;;;5.00;55.80;;;;;;5995234;23;20414;-84
2022/03/09 04:52:10;;;;;;;5.90;5.17;;;4.90;56.00;;;;;;6013247;23;20429;-84
2022/03/09 04:55:30;;;;;;;7.40;5.07;;;5.10;55.40;;;;;;5999134;23;20447;-83
2022/03/09 04:58:37;;;;;;;8.10;5.60;;;4.90;55.60;;;;;;5977178;23;20423;-84
2022/03/09 05:02:05;;;;;;;6.40;5.03;;;4.90;55.90;;;;;;5889552;23;20430;-85
2022/03/09 05:05:05;;;;;;;7.70;5.40;;;4.80;56.00;;;;;;5895050;23;20454;-84
2022/03/09 05:12:12;;;;;;;6.47;5.20;;;5.00;55.70;;;;;;5971579;23;20419;-84
2022/03/09 05:15:17;;;;;;;7.90;5.60;;;4.90;55.50;;;;;;5992986;23;20479;-85
2022/03/09 05:18:40;;;;;;;8.50;5.50;;;4.80;55.50;;;;;;6012361;23;20403;-84
2022/03/09 05:21:54;;;;;;;7.17;5.03;;;4.90;55.30;;;;;;5977557;23;20823;-84
2022/03/09 05:25:18;;;;;;;9.40;5.77;;;5.10;54.80;;;;;;5945747;23;20447;-83
2022/03/09 05:28:28;;;;;;;7.20;5.30;;;5.10;55.00;;;;;;5989327;23;20384;-86
2022/03/09 05:37:49;;;;;;;7.67;5.77;;;5.00;54.80;;;;;;6045231;23;20398;-85
2022/03/09 05:44:53;;;;;;;11.50;5.40;;;4.80;54.80;;;;;;6045612;23;20388;-83
2022/03/09 05:48:16;;;;;;;5.83;5.23;;;4.80;55.00;;;;;;6046013;23;20407;-86
2022/03/09 05:51:29;;;;;;;;;;;;;;;;;;;;;
2022/03/09 05:55:00;;;;;;;;;;;;;;;;;;;;;
2022/03/09 05:58:28;;;;;;;7.50;5.53;;;4.80;55.10;;;;;;6010094;23;20451;-83
2022/03/09 06:01:28;;;;;;;6.03;5.30;;;4.60;55.30;;;;;;6045686;23;20401;-83
2022/03/09 06:04:56;;;;;;;7.83;5.20;;;4.50;55.70;;;;;;5988203;23;20422;-83
2022/03/09 06:08:06;;;;;;;6.40;5.80;;;4.60;55.80;;;;;;6043376;23;20916;-85
2022/03/09 06:14:23;;;;;;;9.40;6.60;;;4.80;55.20;;;;;;6046249;23;20585;-86
2022/03/09 06:17:51;;;;;;;8.70;5.47;;;4.90;55.10;;;;;;6038045;23;20418;-86
2022/03/09 06:21:14;;;;;;;8.80;4.77;;;5.00;55.30;;;;;;6054669;23;20489;-86
2022/03/09 06:28:21;;;;;;;6.37;5.30;;;4.80;55.30;;;;;;6002503;23;20454;-85
2022/03/09 06:31:37;;;;;;;8.93;5.80;;;4.70;55.30;;;;;;6026732;23;20465;-84
2022/03/09 06:38:26;;;;;;;7.37;5.47;;;4.90;54.70;;;;;;6012036;23;20487;-84
2022/03/09 06:41:34;;;;;;;10.80;6.17;;;4.70;54.90;;;;;;5934988;23;20472;-85
2022/03/09 06:45:02;;;;;;;7.20;4.77;;;4.90;55.40;;;;;;6016515;23;20482;-86
2022/03/09 06:48:22;;;;;;;5.57;4.97;;;5.00;54.90;;;;;;5984835;23;20416;-85
2022/03/09 06:51:42;;;;;;;9.30;5.70;;;5.10;54.70;;;;;;6010844;23;20474;-86
2022/03/09 06:55:08;;;;;;;8.80;6.10;;;5.10;55.00;;;;;;5962938;24;21022;-84
2022/03/09 06:58:18;;;;;;;7.33;5.50;;;4.80;55.20;;;;;;6014621;23;20391;-83
2022/03/09 07:01:30;;;;;;;7.07;5.53;;;5.10;55.20;;;;;;6019905;23;20439;-84
2022/03/09 07:05:12;;;;;;;5.63;4.80;;;4.90;55.20;;;;;;6009741;23;20800;-85
2022/03/09 07:08:22;;;;;;;8.93;5.10;;;5.00;54.80;;;;;;5908992;24;20594;-84
2022/03/09 07:15:33;;;;;;;6.83;5.33;;;5.30;54.30;;;;;;5872076;24;20801;-84
2022/03/09 07:32:39;;;;;;;10.13;5.97;;;9.20;51.70;;;;;;5934681;24;20396;-86
2022/03/09 07:48:31;;;;;;;;;;;;;;;;;;;;;
2022/03/09 07:52:31;;;;;;;9.10;5.60;;;15.80;34.50;;;;;;6018264;23;20439;-84
2022/03/09 08:02:20;;;;;;;7.13;6.43;;;16.10;32.90;;;;;;5869518;24;20800;-83
2022/03/09 08:09:34;;;;;;;;;;;;;;;;;;;;;
2022/03/09 08:13:10;;;;;;;7.93;6.17;;;10.00;39.90;;;;;;5961791;24;20464;-84
2022/03/09 08:16:21;;;;;;;9.27;6.33;;;9.30;42.80;;;;;;5966621;23;20454;-83
2022/03/09 08:19:34;;;;;;;6.63;6.03;;;8.80;44.30;;;;;;6011066;23;20413;-86
2022/03/09 08:23:00;;;;;;;6.90;5.83;;;8.30;45.10;;;;;;6018684;23;20435;-85
2022/03/09 08:25:58;;;;;;;7.93;5.53;;;8.30;45.70;;;;;;5993599;23;20439;-85
2022/03/09 08:29:30;;;;;;;8.20;6.27;;;7.80;46.10;;;;;;6017567;23;20444;-84
2022/03/09 08:32:49;;;;;;;8.83;5.90;;;7.90;46.60;;;;;;5973527;23;20404;-84
2022/03/09 08:36:41;;;;;;;10.57;6.93;;;8.00;46.50;;;;;;6000619;23;20434;-83
2022/03/09 08:46:30;;;;;;;10.20;6.67;;;8.00;46.70;;;;;;5933582;24;20449;-84
2022/03/09 08:52:36;;;;;;;6.43;5.83;;;8.00;47.20;;;;;;6032161;23;20459;-84
2022/03/09 08:55:38;;;;;;;;;;;;;;;;;;;;;
2022/03/09 09:02:01;;;;;;;8.67;6.77;;;8.10;47.20;;;;;;5995547;23;20411;-84
2022/03/09 09:05:10;;;;;;;8.80;6.83;;;8.00;47.00;;;;;;5973252;23;20569;-85
2022/03/09 09:08:24;;;;;;;7.23;6.53;;;7.70;47.30;;;;;;6001788;24;20380;-83
2022/03/09 09:12:12;;;;;;;;;;;;;;;;;;;;;
2022/03/09 09:19:36;;;;;;;6.93;5.10;;;8.10;47.10;;;;;;5916009;24;20413;-87
2022/03/09 09:22:36;;;;;;;8.03;5.00;;;8.30;47.30;;;;;;5909291;24;20749;-86
2022/03/09 09:32:19;;;;;;;;;;;;;;;;;;;;;
2022/03/09 09:54:15;;;;;;;;;;;;;;;;;;;;;
2022/03/09 09:57:49;;;;;;;9.90;6.13;;;9.30;44.30;;;;;;5924220;24;20426;-86
2022/03/09 10:01:38;;;;;;;11.27;7.20;;;10.10;43.40;;;;;;5938758;24;20500;-85
2022/03/09 10:05:53;;;;;;;8.47;6.90;;;12.50;40.60;;;;;;5904543;24;20410;-88
2022/03/09 10:32:02;;;;;;;;;;;;;;;;;;;;;
2022/03/09 10:38:44;;;;;;;8.77;7.80;;;14.60;33.10;;;;;;5884322;24;20388;-85
2022/03/09 10:41:43;;;;;;;10.13;6.87;;;13.50;34.20;;;;;;5963844;24;20413;-84
2022/03/09 10:45:17;;;;;;;8.30;7.50;;;13.10;35.50;;;;;;5916179;24;20478;-85
2022/03/09 10:48:18;;;;;;;8.13;6.70;;;12.70;35.30;;;;;;5841057;24;20422;-86
2022/03/09 10:51:11;;;;;;;10.17;7.40;;;12.40;35.90;;;;;;5803683;24;20426;-85
2022/03/09 10:54:40;;;;;;;8.60;7.17;;;12.20;36.60;;;;;;5820071;24;20460;-85
2022/03/09 11:02:03;;;;;;;11.50;8.17;;;12.30;37.20;;;;;;5828890;24;21002;-82
2022/03/09 11:05:22;;;;;;;9.43;7.77;;;12.20;37.10;;;;;;5834459;24;20525;-84
2022/03/09 11:08:55;;;;;;;8.90;6.60;;;12.10;36.90;;;;;;5880606;24;20643;-84
2022/03/09 11:11:58;;;;;;;;;;;;;;;;;;;;;
2022/03/09 11:18:54;;;;;;;;;;;;;;;;;;;;;
2022/03/09 11:21:51;;;;;;;7.53;6.60;;;12.30;35.30;;;;;;5816589;24;20425;-82
2022/03/09 11:25:33;;;;;;;15.07;8.40;;;12.30;35.00;;;;;;5884589;24;20485;-84
2022/03/09 11:33:12;;;;;;;8.27;7.27;;;12.40;35.20;;;;;;5817866;24;20441;-83
2022/03/09 11:36:18;;;;;;;8.73;6.73;;;12.70;34.70;;;;;;5851656;24;20460;-84
2022/03/09 11:39:17;;;;;;;7.47;6.60;;;12.80;34.00;;;;;;5851388;24;20526;-84
2022/03/09 11:42:24;;;;;;;7.70;6.90;;;12.60;33.40;;;;;;5841557;24;20451;-85
2022/03/09 11:46:04;;;;;;;8.80;7.07;;;12.70;33.40;;;;;;5915227;23;20459;-85
2022/03/09 11:49:12;;;;;;;8.53;7.30;;;12.80;32.50;;;;;;6052322;23;20415;-84
2022/03/09 11:55:02;;;;;;;9.40;7.63;;;12.90;32.30;;;;;;5990820;23;20485;-83
2022/03/09 11:58:22;;;;;;;;;;;;;;;;;;;;;
2022/03/09 12:01:05;;;;;;;8.97;8.07;;;13.10;32.90;;;;;;6015583;23;20442;-84
2022/03/09 12:04:08;;;;;;;9.10;7.67;;;13.30;32.50;;;;;;6024484;23;20490;-85
2022/03/09 12:07:19;;;;;;;10.23;7.90;;;13.00;32.60;;;;;;6016053;23;20479;-83
2022/03/09 12:13:53;;;;;;;8.93;6.80;;;13.50;32.10;;;;;;5933228;24;20398;-84
2022/03/09 12:17:02;;;;;;;9.87;8.07;;;13.30;32.70;;;;;;5911590;24;20566;-85
2022/03/09 12:20:27;;;;;;;8.67;7.77;;;13.80;33.10;;;;;;5909503;24;20445;-86
2022/03/09 12:27:23;;;;;;;10.87;8.10;;;14.90;31.20;;;;;;5886322;24;20461;-85
2022/03/09 12:34:44;;;;;;;10.70;8.70;;;16.60;29.30;;;;;;5930443;24;20425;-86
2022/03/09 12:37:58;;;;;;;11.20;9.37;;;16.50;28.80;;;;;;5924832;24;20478;-86
2022/03/09 12:41:11;;;;;;;10.63;8.57;;;17.00;28.30;;;;;;5918234;24;20405;-86
2022/03/09 12:44:06;;;;;;;9.03;8.13;;;16.50;27.50;;;;;;5932467;24;20461;-86
2022/03/09 12:47:15;;;;;;;9.23;8.33;;;17.10;27.50;;;;;;5914366;24;20416;-86
2022/03/09 12:53:38;;;;;;;8.53;7.23;;;17.30;27.30;;;;;;6014383;23;20404;-84
2022/03/09 12:56:49;;;;;;;9.27;8.37;;;17.40;27.00;;;;;;6013680;23;20987;-87
2022/03/09 13:08:10;;;;;;;9.30;8.40;;;18.00;27.00;;;;;;6007806;23;20466;-86
2022/03/09 13:11:08;;;;;;;9.70;8.60;;;18.10;26.50;;;;;;6024710;23;20438;-87
2022/03/09 13:14:18;;;;;;;10.57;9.47;;;17.80;26.80;;;;;;5871637;24;20570;-86
2022/03/09 13:17:52;;;;;;;11.37;10.27;;;17.40;27.20;;;;;;5917684;23;20426;-84
2022/03/09 13:21:05;;;;;;;14.03;9.77;;;17.90;27.50;;;;;;5953055;23;20416;-85
2022/03/09 13:31:07;;;;;;;10.23;9.23;;;18.40;26.80;;;;;;6040952;23;20415;-86
2022/03/09 13:33:50;;;;;;;10.60;9.50;;;18.50;26.80;;;;;;6043423;23;20749;-87
2022/03/09 13:36:32;;;;;;;12.50;11.17;;;17.30;27.10;;;;;;6016623;23;20451;-87
2022/03/09 13:39:05;;;;;;;11.00;9.87;;;18.20;27.40;;;;;;6040845;23;20419;-84
2022/03/09 13:42:23;;;;;;;11.60;9.73;;;18.40;27.20;;;;;;6014103;23;20493;-85
2022/03/09 13:45:31;;;;;;;11.50;9.77;;;18.60;27.20;;;;;;6005982;23;20403;-85
2022/03/09 13:48:12;;;;;;;10.27;8.77;;;18.10;27.50;;;;;;6005558;23;20419;-86
2022/03/09 13:50:59;;;;;;;12.50;10.87;;;18.20;27.80;;;;;;6008407;23;20437;-86
2022/03/09 13:54:15;;;;;;;12.10;10.90;;;18.20;27.90;;;;;;6008727;23;20414;-83
2022/03/09 13:57:12;;;;;;;11.07;9.97;;;17.60;27.80;;;;;;6008616;23;20925;-84
2022/03/09 14:02:44;;;;;;;11.37;9.53;;;18.70;27.40;;;;;;6033046;23;20553;-82
2022/03/09 14:05:11;;;;;;;10.20;9.17;;;18.70;27.60;;;;;;6037940;23;20450;-86
2022/03/09 14:08:27;;;;;;;10.37;9.27;;;18.60;27.20;;;;;;5921749;24;20410;-85
2022/03/09 14:11:14;;;;;;;14.03;10.40;;;18.90;27.30;;;;;;5917601;24;20441;-83
2022/03/09 14:14:27;;;;;;;12.27;9.87;;;18.70;27.60;;;;;;5946285;24;20428;-85
2022/03/09 14:17:01;;;;;;;10.57;9.03;;;18.20;27.60;;;;;;5923611;24;20429;-84
2022/03/09 14:19:31;;;;;;;10.60;9.20;;;17.70;27.60;;;;;;5954053;24;20421;-86
2022/03/09 14:21:58;;;;;;;10.60;8.97;;;17.30;27.60;;;;;;5954184;24;20429;-85
2022/03/09 14:24:34;;;;;;;10.47;9.37;;;17.00;28.10;;;;;;5955978;24;20429;-86
2022/03/09 14:27:04;;;;;;;13.60;10.00;;;16.90;28.20;;;;;;5988543;23;20451;-84
2022/03/09 14:29:31;;;;;;;10.83;9.63;;;16.70;28.30;;;;;;6012263;23;20415;-85
2022/03/09 14:32:58;;;;;;;10.50;9.40;;;16.70;28.40;;;;;;6012489;23;20872;-86
2022/03/09 14:36:36;;;;;;;11.70;10.20;;;16.70;28.50;;;;;;5867758;24;20416;-85
2022/03/09 14:39:20;;;;;;;10.10;9.10;;;16.40;28.60;;;;;;5741701;24;20417;-86
2022/03/09 14:42:03;;;;;;;13.43;10.43;;;16.50;28.60;;;;;;5896245;24;20542;-84
2022/03/09 14:48:46;;;;;;;12.77;10.13;;;16.20;28.40;;;;;;5887569;24;20503;-85
2022/03/09 14:51:52;;;;;;;11.23;10.03;;;16.10;28.60;;;;;;5877808;24;20407;-85
2022/03/09 14:54:32;;;;;;;11.70;9.70;;;16.20;28.90;;;;;;5874706;24;20415;-85
2022/03/09 14:57:40;;;;;;;11.23;9.37;;;16.00;28.40;;;;;;5880914;24;20435;-86
2022/03/09 15:00:13;;;;;;;17.37;10.77;;;16.00;28.50;;;;;;5895171;24;20884;-85
2022/03/09 15:02:52;;;;;;;15.20;9.27;;;16.00;29.20;;;;;;5876036;24;20426;-85
2022/03/09 15:05:31;;;;;;;10.47;8.67;;;16.00;29.40;;;;;;5881491;24;20479;-86
2022/03/09 15:08:36;;;;;;;10.73;8.57;;;15.80;29.40;;;;;;5993801;23;20407;-87
2022/03/09 15:11:53;;;;;;;;;;;;;;;;;;;;;
2022/03/09 15:15:20;;;;;;;11.63;9.67;;;15.80;29.00;;;;;;6023985;23;20399;-85
2022/03/09 15:21:44;;;;;;;;;;;;;;;;;;;;;
2022/03/09 15:29:16;;;;;;;11.57;9.67;;;15.80;28.90;;;;;;6006836;23;20394;-85
2022/03/09 15:32:25;;;;;;;;;;;;;;;;;;;;;
2022/03/09 15:35:30;;;;;;;14.87;10.13;;;15.90;28.40;;;;;;5959217;23;20402;-84
2022/03/09 15:38:40;;;;;;;13.83;10.73;;;15.60;28.80;;;;;;6002677;23;20502;-84
2022/03/09 15:41:55;;;;;;;12.57;10.30;;;15.90;28.70;;;;;;5978534;23;20780;-85
2022/03/09 15:45:06;;;;;;;12.90;9.47;;;15.80;29.00;;;;;;5998169;23;20725;-85
2022/03/09 15:48:12;;;;;;;10.80;9.70;;;15.80;29.00;;;;;;5961109;24;20746;-84
2022/03/09 15:51:30;;;;;;;11.73;10.13;;;15.90;29.00;;;;;;5951956;24;20416;-85
2022/03/09 15:54:51;;;;;;;11.90;10.23;;;15.90;29.10;;;;;;5873145;24;20414;-83
2022/03/09 15:57:38;;;;;;;10.63;9.30;;;15.80;28.90;;;;;;5987525;23;20448;-80
2022/03/09 16:00:20;;;;;;;10.60;9.00;;;16.00;28.90;;;;;;5980515;24;20655;-80
2022/03/09 16:02:49;;;;;;;10.43;9.10;;;15.80;29.00;;;;;;5982080;23;20519;-81
2022/03/09 16:05:16;;;;;;;11.00;9.50;;;16.00;29.20;;;;;;5984415;24;20408;-81
2022/03/09 16:07:49;;;;;;;12.97;11.10;;;15.90;28.90;;;;;;5960644;24;20425;-82
2022/03/09 16:10:17;;;;;;;11.23;8.93;;;15.80;28.80;;;;;;5956773;24;20425;-81
2022/03/09 16:12:44;;;;;;;11.63;9.30;;;15.70;28.80;;;;;;5963856;24;20493;-80
2022/03/09 16:15:17;;;;;;;13.13;10.80;;;15.70;29.10;;;;;;5967098;24;20429;-82
2022/03/09 16:17:44;;;;;;;12.30;9.77;;;15.80;29.40;;;;;;5977230;24;20532;-80
2022/03/09 16:20:12;;;;;;;12.20;9.47;;;15.80;29.40;;;;;;5957372;24;20950;-82
2022/03/09 16:22:42;;;;;;;15.53;11.40;;;15.70;29.20;;;;;;5955796;24;20480;-83
2022/03/09 16:25:19;;;;;;;11.83;9.83;;;15.70;29.00;;;;;;5958428;24;20425;-81
2022/03/09 16:27:58;;;;;;;;;;;;;;;;;;;;;
2022/03/09 16:30:27;;;;;;;11.43;9.60;;;15.80;29.30;;;;;;5956001;24;20421;-81
2022/03/09 16:33:02;;;;;;;11.30;8.97;;;15.80;29.00;;;;;;5980349;24;20925;-82
2022/03/09 16:35:45;;;;;;;12.87;10.10;;;15.60;28.90;;;;;;5956476;24;20796;-81
2022/03/09 16:38:14;;;;;;;11.80;9.00;;;15.60;28.90;;;;;;5958227;24;20448;-81
2022/03/09 16:40:44;;;;;;;10.40;9.33;;;15.50;28.90;;;;;;5957148;24;20448;-80
2022/03/09 16:43:14;;;;;;;17.27;9.80;;;15.20;29.10;;;;;;5943829;24;20425;-81
2022/03/09 16:45:41;;;;;;;12.73;9.60;;;15.10;29.70;;;;;;5945412;24;20508;-81
2022/03/09 16:48:08;;;;;;;11.83;10.00;;;15.10;29.50;;;;;;5946332;24;20412;-80
2022/03/09 16:50:35;;;;;;;11.73;9.47;;;14.90;29.70;;;;;;5946610;24;21155;-79
2022/03/09 16:53:03;;;;;;;9.37;7.70;;;15.10;29.40;;;;;;5955446;24;20413;-81
2022/03/09 16:55:29;;;;;;;10.93;8.60;;;15.10;29.80;;;;;;5963839;24;20417;-79
2022/03/09 16:57:56;;;;;;;10.20;8.43;;;14.90;30.00;;;;;;5965760;24;20386;-81
2022/03/09 17:00:23;;;;;;;9.67;8.60;;;14.80;30.30;;;;;;5963391;24;20440;-81
2022/03/09 17:02:54;;;;;;;11.87;8.90;;;14.70;30.90;;;;;;5960531;24;20416;-81
2022/03/09 17:05:21;;;;;;;9.83;8.70;;;14.60;31.30;;;;;;5957744;24;20409;-81
2022/03/09 17:07:50;;;;;;;8.67;7.77;;;14.50;31.90;;;;;;5957245;24;20459;-80
2022/03/09 17:10:18;;;;;;;8.87;7.43;;;14.40;32.10;;;;;;5979938;24;20415;-81
2022/03/09 17:12:45;;;;;;;11.13;8.00;;;14.40;32.40;;;;;;5957711;24;20452;-82
2022/03/09 17:15:12;;;;;;;8.97;8.10;;;14.30;33.30;;;;;;5959445;24;20785;-82
2022/03/09 17:17:39;;;;;;;14.07;10.43;;;14.30;32.90;;;;;;5958859;24;20441;-82
2022/03/09 17:20:06;;;;;;;9.77;8.03;;;14.20;33.10;;;;;;5957740;24;20421;-82
2022/03/09 17:22:35;;;;;;;8.43;7.63;;;14.20;33.30;;;;;;5959468;24;20456;-82
2022/03/09 17:25:05;;;;;;;9.83;8.50;;;14.10;33.50;;;;;;5979061;24;20409;-82
2022/03/09 17:27:32;;;;;;;11.60;8.53;;;14.10;33.80;;;;;;5957691;24;20473;-82
2022/03/09 17:29:59;;;;;;;8.87;7.67;;;14.00;34.00;;;;;;5956714;24;20418;-82
2022/03/09 17:32:26;;;;;;;10.03;8.70;;;14.00;33.90;;;;;;5958850;24;20452;-82
2022/03/09 17:34:53;;;;;;;10.80;9.47;;;14.00;34.00;;;;;;5955890;24;20413;-82
2022/03/09 17:37:21;;;;;;;8.40;7.60;;;14.00;34.30;;;;;;5958171;24;20444;-83
2022/03/09 17:39:48;;;;;;;10.10;8.77;;;13.90;34.30;;;;;;5954742;24;20900;-82
2022/03/09 17:42:15;;;;;;;10.30;7.90;;;13.70;34.60;;;;;;5957557;24;20492;-82
2022/03/09 17:44:42;;;;;;;10.80;8.20;;;13.80;35.00;;;;;;5957169;24;20433;-82
2022/03/09 17:47:09;;;;;;;8.83;7.97;;;13.70;35.00;;;;;;5957938;24;20509;-82
2022/03/09 17:49:36;;;;;;;12.70;9.43;;;13.60;35.20;;;;;;5954739;24;20771;-81
2022/03/09 17:52:05;;;;;;;9.30;8.30;;;13.50;35.40;;;;;;5957850;24;20417;-83
2022/03/09 17:54:32;;;;;;;9.90;7.37;;;13.60;35.50;;;;;;5959311;24;20413;-82
2022/03/09 17:57:01;;;;;;;9.40;8.33;;;13.60;35.40;;;;;;5959141;24;20455;-82
2022/03/09 17:59:29;;;;;;;9.73;8.40;;;13.60;35.50;;;;;;5957461;24;20759;-82
2022/03/09 18:01:57;;;;;;;12.43;9.87;;;13.40;35.60;;;;;;5950768;24;20737;-82
2022/03/09 18:04:24;;;;;;;12.67;9.87;;;13.40;35.90;;;;;;5945981;24;20742;-81
2022/03/09 18:06:52;;;;;;;9.90;8.60;;;13.30;36.10;;;;;;5945318;24;20459;-81
2022/03/09 18:09:19;;;;;;;11.30;8.50;;;13.20;36.40;;;;;;5943601;24;20442;-83
2022/03/09 18:11:45;;;;;;;11.97;8.47;;;13.20;36.50;;;;;;5944411;24;21104;-82
2022/03/09 18:14:12;;;;;;;9.70;8.60;;;13.20;36.50;;;;;;5979733;24;20417;-82
2022/03/09 18:16:39;;;;;;;12.00;9.50;;;13.40;36.30;;;;;;5961305;24;20441;-83
2022/03/09 18:19:07;;;;;;;13.00;9.17;;;13.30;36.10;;;;;;5961079;24;20931;-82
2022/03/09 18:21:38;;;;;;;11.80;9.67;;;13.20;36.30;;;;;;5970890;24;20405;-80
2022/03/09 18:24:28;;;;;;;9.17;8.20;;;13.10;36.40;;;;;;5969245;24;20425;-82
2022/03/09 18:27:28;;;;;;;10.90;9.20;;;13.10;36.80;;;;;;6005625;23;21267;-82
2022/03/09 18:30:05;;;;;;;10.10;8.20;;;13.00;37.00;;;;;;5980628;24;20917;-80
2022/03/09 18:32:34;;;;;;;10.87;7.60;;;13.10;36.90;;;;;;5962228;24;20412;-80
2022/03/09 18:35:00;;;;;;;9.27;8.37;;;13.00;36.90;;;;;;5958342;24;20459;-81
2022/03/09 18:37:29;;;;;;;10.77;8.37;;;12.90;36.90;;;;;;6001322;23;20523;-82
2022/03/09 18:39:58;;;;;;;10.80;9.17;;;13.00;37.00;;;;;;6002039;23;20419;-81
2022/03/09 18:42:33;;;;;;;11.20;8.90;;;13.00;37.00;;;;;;5978718;23;20442;-82
2022/03/09 18:45:08;;;;;;;9.63;8.07;;;13.00;36.90;;;;;;6001794;23;20395;-81
2022/03/09 18:48:00;;;;;;;9.83;8.53;;;12.90;36.70;;;;;;5976022;23;20482;-81
2022/03/09 18:50:30;;;;;;;10.53;8.90;;;12.90;36.80;;;;;;5978318;23;20444;-80
2022/03/09 18:52:59;;;;;;;11.13;9.13;;;12.80;36.60;;;;;;6003867;23;20420;-82
2022/03/09 18:55:29;;;;;;;10.60;9.50;;;12.70;37.00;;;;;;6002466;23;20450;-82
2022/03/09 18:58:02;;;;;;;12.80;9.57;;;12.60;37.10;;;;;;6006253;23;20489;-82
2022/03/09 19:00:51;;;;;;;11.00;8.80;;;12.50;37.40;;;;;;5990440;23;20407;-80
2022/03/09 19:03:24;;;;;;;9.20;8.20;;;12.50;37.60;;;;;;6003456;23;20521;-80
2022/03/09 19:05:57;;;;;;;18.77;9.50;;;12.30;37.50;;;;;;6015086;23;21304;-79
2022/03/09 19:08:24;;;;;;;10.37;9.13;;;12.40;37.50;;;;;;5993825;23;20502;-79
2022/03/09 19:10:53;;;;;;;10.63;9.53;;;12.30;37.50;;;;;;6027863;23;20466;-80
2022/03/09 19:13:19;;;;;;;11.73;8.77;;;12.20;37.60;;;;;;6000678;23;20427;-81
2022/03/09 19:15:46;;;;;;;15.40;10.23;;;12.30;37.70;;;;;;6003158;23;20435;-81
2022/03/09 19:18:13;;;;;;;12.47;10.30;;;12.20;37.60;;;;;;6008427;23;20463;-81
2022/03/09 19:20:41;;;;;;;11.27;9.93;;;12.20;37.80;;;;;;5985714;23;20422;-80
2022/03/09 19:23:08;;;;;;;12.53;10.33;;;12.10;37.60;;;;;;6010257;23;20415;-81
2022/03/09 19:25:39;;;;;;;12.93;9.87;;;11.90;37.60;;;;;;6000728;23;20411;-80
2022/03/09 19:28:06;;;;;;;12.50;10.50;;;11.80;37.50;;;;;;6001667;23;20451;-80
2022/03/09 19:30:33;;;;;;;11.77;10.47;;;11.70;37.60;;;;;;6000640;23;20750;-81
2022/03/09 19:32:59;;;;;;;10.60;9.40;;;11.90;37.40;;;;;;5977481;23;20418;-80
2022/03/09 19:35:26;;;;;;;13.20;10.80;;;11.90;37.00;;;;;;6002073;23;20415;-81
2022/03/09 19:37:53;;;;;;;12.90;10.60;;;11.90;37.00;;;;;;5999757;23;20435;-80
2022/03/09 19:40:20;;;;;;;13.97;10.97;;;11.90;37.30;;;;;;6000859;23;20432;-81
2022/03/09 19:42:47;;;;;;;12.13;9.90;;;11.80;37.70;;;;;;5975980;23;20411;-80
2022/03/09 19:45:17;;;;;;;12.20;9.30;;;11.70;37.60;;;;;;6002360;23;20439;-81